Relevés horaires Eggishorn (Suisse)


Relevés horaires à Eggishorn - Jeudi 09 Nov. 2017
Heure UTC1 Température [°C] Vent [km/h] Hum. [%] Pres.4 [hPa] Visi. [Km] Nébu. [octa] Préc.5 [mm] Cond.
2m. Res. Ros. Dir.2 Vit. Moy. Raf.3
23:00 -6.6 -12.1 -14.7 NO 13.0 -- 25.9 52 700(0.4/3h) -- -- -- --
22:00 -6.4 -10.7 -13.9 NO 9.3 -- 18.5 55 700(0.5/3h) -- -- -- --
21:00 -6.9 -13.3 -13.1 NNO 16.7 -- 18.5 61 700(0.5/3h) -- -- -- --
20:00 -7.3 -14.2 -12.1 NNO 18.5 -- 18.5 68 700(1.0/3h) -- -- -- --
19:00 -7.1 -10 -9.0 NNO 5.6 -- 9.3 86 700(1.2/3h) -- -- -- --
18:00 -7.2 -10.1 -9.0 E 5.6 -- 14.8 87 700(1.1/3h) -- -- -- --
17:00 -7.2 -10.1 -9.0 ENE 5.6 -- 9.3 87 700(0.7/3h) -- -- -- --
16:00 -7.4 -10.3 -8.8 ESE 5.6 -- 7.4 90 700(0.4/3h) -- -- -- --
15:00 -7.0 -7.0 -8.9 SSE 1.9 -- 14.8 86 700(0.3/3h) -- -- -- --
14:00 -7.2 -10.9 -8.2 SE 7.4 -- 14.8 93 700(0.1/3h) -- -- -- --
13:00 -6.8 -9.6 -7.3 SE 5.6 -- 14.8 96 700(0.0/3h) -- -- -- --
12:00 -6.6 -11 -7.1 ESE 9.3 -- 29.6 96 700(0.1/3h) -- -- -- --
11:00 -6.1 -8.8 -8.3 ESE 5.6 -- 11.1 84 700(0.7/3h) -- -- -- --
10:00 -6.7 -9.5 -9.4 NE 5.6 -- 11.1 81 700(1.2/3h) -- -- -- --
09:00 -6.5 -10.1 -9.5 NNO 7.4 -- 29.6 79 700(1.6/3h) -- -- -- --
08:00 -7.0 -13.4 -8.6 E 16.7 -- 29.6 88 700(1.3/3h) -- -- -- --
07:00 -7.6 -14.5 -7.9 ESE 18.5 -- 25.9 98 700(1.2/3h) -- -- -- --
06:00 -7.6 -14.2 -8.8 E 16.7 -- 25.9 91 700(0.6/3h) -- -- -- --
05:00 -8.1 -13.9 -8.5 E 13.0 -- 24.1 97 700(0.6/3h) -- -- -- --
04:00 -7.9 -14.1 -8.2 E 14.8 -- 20.4 98 700(0.3/3h) -- -- -- --
03:00 -8.1 -12 -9.1 ESE 7.4 -- 25.9 92 700(0.3/3h) -- -- -- --
02:00 -8.3 -12.2 -8.3 ESE 7.4 -- 16.7 100 700(0.2/3h) -- -- -- --
01:00 -8.1 -13.9 -8.5 SSE 13.0 -- 25.9 97 700(0.2/3h) -- -- -- --
00:00 -7.7 -10.7 -8.3 SE 5.6 -- 18.5 95 700(0.3/3h) -- -- -- --

1 Coordinated Universal Time. Actuellement il est 12:00 locale et 10:00 UTC.

2 Le vent souffle depuis la direction indiquée vers la direction oposée.

3 Les rafales max. sont disponible 40 min après l'heure du relevé.

4 Pour les stations d'altitude (plus de 600m) le géopotentiel du niveau le plus proche de la pression obligatoire est indiqué.

5 Les stations disposant d'un diffuseur peuvent indiquer "trace". Cela signifie que des précipitations ont touchés le sol mais que la quantité est inférieure à 0.1 mm.

Copyright

Les données affichées sur cette page sont la propriété exclusive de Météo Suisse.

Récapitulatif de la journée
Température [°C] Vent [km/h] Ensoleillement4 [h] Precipitations totale5 [mm] Pression [Hpa]
Min1 Max.2 Moy.3 Max. Min Max.
-8.4 -5.3 0 29.6 5 h 6 min 0 700.0 700.0

1 Température minimale relevée entre 18:00 UTC la veille et 18:00 UTC le jour donné.

2 Température maximale relevée entre 06:00 UTC le jour donné et 06:00 UTC le lendemain.

3 Vent moyen de la journée basé sur les relevés horaires.

4 Ensoleillement en heures relevé entre 06:00 UTC la veille et 06:00 UTC le jour donné.

5 Précipitations totales tombées entre 06:00 UTC la jour donné et 06:00 UTC le lendemain.

Graphiques horaires